Time;durP1;ratioP1;P1;durP2;ratioP2;P2;SDS_P1;SDS_P2;PMS_P1;PMS_P2;Temp;Humidity;BMP_temperature;BMP_pressure;BME280_temperature;BME280_humidity;BME280_pressure;Samples;Min_cycle;Max_cycle;Signal;HPM_P1;HPM_P2
2023/03/07 00:00:12;;;;;;;58.40;20.30;;;;;;;;;;8407859;28;20124;-81
2023/03/07 00:04:35;;;;;;;49.75;19.33;;;;;;;;;;8415562;28;20040;-80
2023/03/07 00:08:40;;;;;;;51.47;18.75;;;;;;;;;;8424881;28;20116;-81
2023/03/07 00:12:43;;;;;;;44.10;18.30;;;;;;;;;;8403322;28;20048;-81
2023/03/07 00:16:51;;;;;;;42.90;17.40;;;;;;;;;;8400962;28;20376;-81
2023/03/07 00:20:58;;;;;;;42.40;17.38;;;;;;;;;;8426261;28;20062;-82
2023/03/07 00:25:03;;;;;;;40.10;18.27;;;;;;;;;;8430291;28;20043;-81
2023/03/07 00:29:06;;;;;;;51.13;19.20;;;;;;;;;;8430843;28;20044;-81
2023/03/07 00:33:09;;;;;;;43.20;17.50;;;;;;;;;;8411432;28;20740;-80
2023/03/07 00:37:12;;;;;;;44.95;17.98;;;;;;;;;;8427209;28;20104;-81
2023/03/07 00:41:19;;;;;;;48.55;19.65;;;;;;;;;;8409386;28;20045;-81
2023/03/07 00:45:21;;;;;;;48.45;20.88;;;;;;;;;;8397360;28;20044;-81
2023/03/07 00:49:25;;;;;;;51.53;19.90;;;;;;;;;;8402849;28;20414;-79
2023/03/07 00:53:28;;;;;;;39.80;17.42;;;;;;;;;;8412735;28;20040;-83
2023/03/07 00:57:32;;;;;;;51.10;19.88;;;;;;;;;;8396220;28;20050;-81
2023/03/07 01:01:35;;;;;;;45.47;19.20;;;;;;;;;;8411695;28;20499;-82
2023/03/07 01:05:39;;;;;;;41.63;19.17;;;;;;;;;;8413796;28;20542;-81
2023/03/07 01:09:42;;;;;;;53.30;21.55;;;;;;;;;;8392739;28;20049;-81
2023/03/07 01:13:46;;;;;;;47.00;19.48;;;;;;;;;;8412173;28;20040;-81
2023/03/07 01:17:49;;;;;;;44.58;18.48;;;;;;;;;;8410980;28;20446;-81
2023/03/07 01:21:52;;;;;;;47.10;19.55;;;;;;;;;;8418573;28;20052;-87
2023/03/07 01:25:55;;;;;;;50.38;19.42;;;;;;;;;;8408897;28;20048;-82
2023/03/07 01:29:59;;;;;;;41.90;17.45;;;;;;;;;;8414497;28;20453;-81
2023/03/07 01:34:03;;;;;;;42.95;17.50;;;;;;;;;;8430675;28;20067;-80
2023/03/07 01:38:06;;;;;;;38.50;18.85;;;;;;;;;;8599983;22;20056;-84
2023/03/07 01:42:09;;;;;;;55.17;21.08;;;;;;;;;;8364708;28;20051;-83
2023/03/07 01:46:44;;;;;;;47.20;19.88;;;;;;;;;;8363704;28;20431;-84
2023/03/07 01:50:49;;;;;;;44.58;19.42;;;;;;;;;;8362248;28;20143;-84
2023/03/07 01:54:56;;;;;;;46.88;20.80;;;;;;;;;;8364095;28;20053;-83
2023/03/07 01:59:00;;;;;;;46.80;20.65;;;;;;;;;;8364085;28;20041;-84
2023/03/07 02:03:12;;;;;;;49.53;19.05;;;;;;;;;;8361977;28;20060;-85
2023/03/07 02:07:20;;;;;;;44.35;19.52;;;;;;;;;;8362413;28;20090;-84
2023/03/07 02:11:24;;;;;;;49.50;19.73;;;;;;;;;;8350733;28;20048;-84
2023/03/07 02:15:27;;;;;;;45.95;17.85;;;;;;;;;;8362869;28;20403;-86
2023/03/07 02:19:40;;;;;;;41.85;16.23;;;;;;;;;;8363224;28;20501;-84
2023/03/07 02:23:50;;;;;;;44.42;19.02;;;;;;;;;;8363128;28;20055;-84
2023/03/07 02:27:57;;;;;;;47.53;17.83;;;;;;;;;;8363021;28;20408;-85
2023/03/07 02:32:00;;;;;;;49.08;18.83;;;;;;;;;;8362841;28;20049;-85
2023/03/07 02:36:07;;;;;;;47.30;20.27;;;;;;;;;;8363236;28;20052;-84
2023/03/07 02:40:15;;;;;;;42.33;19.25;;;;;;;;;;8362183;28;20048;-85
2023/03/07 02:44:19;;;;;;;43.10;16.98;;;;;;;;;;8362510;28;20049;-84
2023/03/07 02:48:22;;;;;;;37.47;14.20;;;;;;;;;;8362714;28;20049;-84
2023/03/07 02:52:26;;;;;;;36.13;15.20;;;;;;;;;;8363824;28;20064;-84
2023/03/07 02:56:29;;;;;;;33.00;13.88;;;;;;;;;;8373690;28;20055;-83
2023/03/07 03:00:34;;;;;;;28.08;12.32;;;;;;;;;;8361445;28;20049;-84
2023/03/07 03:04:38;;;;;;;29.70;12.63;;;;;;;;;;8361879;28;20056;-86
2023/03/07 03:08:41;;;;;;;29.80;12.63;;;;;;;;;;8362340;28;20381;-84
2023/03/07 03:12:44;;;;;;;35.20;13.50;;;;;;;;;;8362197;28;20083;-84
2023/03/07 03:16:49;;;;;;;30.05;12.80;;;;;;;;;;8361933;28;20053;-84
2023/03/07 03:20:51;;;;;;;35.22;13.85;;;;;;;;;;8362397;28;20044;-84
2023/03/07 03:24:54;;;;;;;39.15;14.65;;;;;;;;;;8362684;28;20491;-84
2023/03/07 03:28:57;;;;;;;45.72;17.08;;;;;;;;;;8354098;28;20416;-84
2023/03/07 03:33:01;;;;;;;46.33;15.82;;;;;;;;;;8356560;28;20049;-84
2023/03/07 03:37:04;;;;;;;35.58;16.75;;;;;;;;;;8361257;28;20525;-83
2023/03/07 03:41:10;;;;;;;44.75;15.82;;;;;;;;;;8296237;28;20050;-84
2023/03/07 03:45:14;;;;;;;40.50;15.65;;;;;;;;;;8296523;28;20037;-84
2023/03/07 03:49:19;;;;;;;46.30;17.48;;;;;;;;;;8296011;28;20115;-84
2023/03/07 03:53:22;;;;;;;50.03;15.88;;;;;;;;;;8299600;28;20041;-87
2023/03/07 03:57:25;;;;;;;36.80;13.95;;;;;;;;;;8301886;28;20473;-84
2023/03/07 04:01:28;;;;;;;38.42;15.40;;;;;;;;;;8301455;28;20046;-86
2023/03/07 04:05:35;;;;;;;42.55;16.83;;;;;;;;;;8301763;28;20046;-82
2023/03/07 04:09:37;;;;;;;52.53;17.60;;;;;;;;;;8303270;28;20042;-83
2023/03/07 04:13:40;;;;;;;53.40;17.63;;;;;;;;;;8302764;28;20046;-84
2023/03/07 04:17:43;;;;;;;48.33;19.50;;;;;;;;;;8302211;28;20092;-84
2023/03/07 04:21:47;;;;;;;56.83;20.13;;;;;;;;;;8301067;28;20046;-83
2023/03/07 04:25:51;;;;;;;52.08;20.23;;;;;;;;;;8288450;28;20101;-84
2023/03/07 04:29:54;;;;;;;56.05;18.02;;;;;;;;;;8299142;28;20080;-83
2023/03/07 04:33:57;;;;;;;79.07;25.48;;;;;;;;;;8290111;28;20474;-84
2023/03/07 04:38:02;;;;;;;59.92;21.77;;;;;;;;;;8315098;28;20068;-84
2023/03/07 04:42:05;;;;;;;54.08;22.70;;;;;;;;;;8365843;28;20052;-84
2023/03/07 04:46:08;;;;;;;56.05;22.08;;;;;;;;;;8365853;28;20056;-83
2023/03/07 04:50:11;;;;;;;55.03;21.35;;;;;;;;;;8366094;28;20049;-84
2023/03/07 04:54:16;;;;;;;55.85;19.60;;;;;;;;;;8369700;28;20073;-85
2023/03/07 04:58:19;;;;;;;43.83;16.60;;;;;;;;;;8380859;28;20082;-84
2023/03/07 05:02:22;;;;;;;45.97;18.17;;;;;;;;;;8367924;28;20052;-83
2023/03/07 05:06:24;;;;;;;48.22;18.35;;;;;;;;;;8364504;28;20056;-86
2023/03/07 05:10:29;;;;;;;42.83;16.60;;;;;;;;;;8365701;28;20450;-84
2023/03/07 05:14:32;;;;;;;43.55;15.23;;;;;;;;;;8351886;28;20063;-85
2023/03/07 05:18:34;;;;;;;114.20;32.88;;;;;;;;;;8365116;28;20045;-84
2023/03/07 05:22:37;;;;;;;87.03;29.08;;;;;;;;;;8365259;28;20045;-84
2023/03/07 05:26:42;;;;;;;72.55;23.90;;;;;;;;;;8360043;28;20041;-83
2023/03/07 05:30:45;;;;;;;52.20;17.95;;;;;;;;;;8357368;28;20052;-84
2023/03/07 05:34:48;;;;;;;53.28;16.83;;;;;;;;;;8364451;28;20056;-84
2023/03/07 05:38:52;;;;;;;57.40;17.90;;;;;;;;;;8364072;28;20103;-84
2023/03/07 05:42:57;;;;;;;40.05;14.95;;;;;;;;;;8363972;28;20083;-84
2023/03/07 05:46:59;;;;;;;53.50;16.40;;;;;;;;;;8371143;28;20045;-85
2023/03/07 05:51:02;;;;;;;53.20;15.98;;;;;;;;;;8360776;28;20087;-84
2023/03/07 05:55:06;;;;;;;54.30;17.23;;;;;;;;;;8361570;28;20045;-82
2023/03/07 05:59:14;;;;;;;50.67;17.00;;;;;;;;;;8360951;28;20051;-84
2023/03/07 06:03:17;;;;;;;61.28;20.98;;;;;;;;;;8363681;28;20123;-84
2023/03/07 06:07:20;;;;;;;71.90;20.65;;;;;;;;;;8363170;28;20492;-84
2023/03/07 06:11:23;;;;;;;61.50;18.63;;;;;;;;;;8363640;28;20366;-84
2023/03/07 06:15:27;;;;;;;74.93;23.25;;;;;;;;;;8363361;28;20111;-84
2023/03/07 06:19:30;;;;;;;100.40;30.02;;;;;;;;;;8363610;28;20790;-84
2023/03/07 06:23:35;;;;;;;95.10;29.13;;;;;;;;;;8362918;28;20127;-87
2023/03/07 06:27:39;;;;;;;222.50;57.08;;;;;;;;;;8362859;28;20052;-84
2023/03/07 06:31:43;;;;;;;75.13;28.50;;;;;;;;;;8375870;28;20044;-84
2023/03/07 06:35:46;;;;;;;48.25;19.00;;;;;;;;;;8362666;28;20099;-84
2023/03/07 06:39:49;;;;;;;63.35;26.63;;;;;;;;;;8362256;28;20063;-85
2023/03/07 06:43:52;;;;;;;67.18;30.40;;;;;;;;;;8362579;28;20119;-87
2023/03/07 06:47:57;;;;;;;104.40;35.42;;;;;;;;;;8362385;28;20465;-84
2023/03/07 06:52:00;;;;;;;80.63;31.02;;;;;;;;;;8362228;28;20045;-84
2023/03/07 06:56:03;;;;;;;67.10;25.45;;;;;;;;;;8361903;28;20128;-85
2023/03/07 07:00:07;;;;;;;99.30;34.70;;;;;;;;;;8362411;28;20041;-85
2023/03/07 07:04:12;;;;;;;58.80;22.05;;;;;;;;;;8361971;28;20044;-84
2023/03/07 07:08:14;;;;;;;33.92;15.18;;;;;;;;;;8360980;28;20051;-85
2023/03/07 07:12:18;;;;;;;43.97;18.92;;;;;;;;;;8375399;28;20044;-86
2023/03/07 07:16:21;;;;;;;56.03;22.98;;;;;;;;;;8362231;28;20051;-85
2023/03/07 07:20:25;;;;;;;95.40;33.97;;;;;;;;;;8362013;28;20128;-85
2023/03/07 07:24:28;;;;;;;69.03;27.45;;;;;;;;;;8362288;28;20049;-85
2023/03/07 07:28:31;;;;;;;51.17;20.65;;;;;;;;;;8365715;28;20095;-86
2023/03/07 07:32:34;;;;;;;59.20;23.40;;;;;;;;;;8368413;28;20124;-85
2023/03/07 07:36:39;;;;;;;55.15;21.20;;;;;;;;;;8368149;28;20045;-85
2023/03/07 07:40:42;;;;;;;55.28;22.52;;;;;;;;;;8367849;28;20060;-85
2023/03/07 07:44:47;;;;;;;40.38;16.17;;;;;;;;;;8363332;28;20041;-84
2023/03/07 07:48:50;;;;;;;107.00;35.08;;;;;;;;;;8359789;28;20064;-85
2023/03/07 07:52:55;;;;;;;78.18;28.50;;;;;;;;;;8367486;28;20041;-85
2023/03/07 07:56:57;;;;;;;29.30;12.57;;;;;;;;;;8367553;28;20051;-86
2023/03/07 08:01:00;;;;;;;82.07;31.88;;;;;;;;;;8367297;28;20049;-86
2023/03/07 08:05:06;;;;;;;55.83;22.65;;;;;;;;;;8367472;28;20048;-86
2023/03/07 08:09:11;;;;;;;61.47;24.48;;;;;;;;;;8367090;28;20087;-87
2023/03/07 08:13:15;;;;;;;55.25;24.95;;;;;;;;;;8367274;28;20484;-85
2023/03/07 08:17:18;;;;;;;54.35;20.95;;;;;;;;;;8366607;28;20128;-86
2023/03/07 08:21:21;;;;;;;63.95;27.23;;;;;;;;;;8353784;28;20049;-86
2023/03/07 08:25:25;;;;;;;54.13;25.17;;;;;;;;;;8366541;28;20041;-86
2023/03/07 08:29:28;;;;;;;48.40;22.38;;;;;;;;;;8367018;28;20053;-88
2023/03/07 08:33:31;;;;;;;53.45;24.63;;;;;;;;;;8366246;28;20175;-86
2023/03/07 08:37:35;;;;;;;53.95;23.67;;;;;;;;;;8365800;28;20143;-89
2023/03/07 08:41:39;;;;;;;46.17;23.25;;;;;;;;;;8366579;28;20049;-89
2023/03/07 08:45:42;;;;;;;48.72;23.73;;;;;;;;;;8379619;28;20040;-89
2023/03/07 08:49:46;;;;;;;45.85;22.58;;;;;;;;;;8366134;28;20044;-89
2023/03/07 08:53:48;;;;;;;47.88;22.23;;;;;;;;;;8379644;28;20484;-88
2023/03/07 08:57:53;;;;;;;55.03;20.50;;;;;;;;;;8352665;28;20041;-89
2023/03/07 09:01:57;;;;;;;57.92;22.90;;;;;;;;;;8365913;28;20115;-88
2023/03/07 09:06:00;;;;;;;41.92;19.73;;;;;;;;;;8365151;28;20373;-89
2023/03/07 09:10:04;;;;;;;43.17;20.38;;;;;;;;;;8365338;28;20120;-88
2023/03/07 09:14:09;;;;;;;53.42;22.58;;;;;;;;;;8364174;28;20061;-90
2023/03/07 09:18:13;;;;;;;42.67;21.45;;;;;;;;;;8353043;28;20053;-88
2023/03/07 09:22:16;;;;;;;26.00;12.73;;;;;;;;;;8354072;28;20056;-89
2023/03/07 09:26:19;;;;;;;38.00;20.48;;;;;;;;;;8336757;28;20049;-89
2023/03/07 09:30:27;;;;;;;36.15;19.60;;;;;;;;;;8336182;28;20129;-90
2023/03/07 09:34:30;;;;;;;40.35;21.55;;;;;;;;;;8337010;28;20056;-90
2023/03/07 09:38:34;;;;;;;33.70;17.85;;;;;;;;;;8346706;28;20492;-88
2023/03/07 09:42:43;;;;;;;29.55;15.77;;;;;;;;;;8328081;28;20069;-89
2023/03/07 09:46:58;;;;;;;40.42;20.38;;;;;;;;;;8335019;28;20049;-89
2023/03/07 09:51:09;;;;;;;48.65;23.05;;;;;;;;;;8326256;28;20131;-90
2023/03/07 09:55:15;;;;;;;30.65;16.95;;;;;;;;;;8339928;28;20041;-90
2023/03/07 09:59:24;;;;;;;34.30;17.50;;;;;;;;;;8345577;28;20052;-89
2023/03/07 10:03:41;;;;;;;29.75;16.77;;;;;;;;;;8333698;28;20051;-89
2023/03/07 10:07:46;;;;;;;37.88;20.02;;;;;;;;;;8359096;28;20077;-88
2023/03/07 10:12:17;;;;;;;38.72;19.13;;;;;;;;;;8339140;28;20055;-88
2023/03/07 10:16:27;;;;;;;23.48;13.60;;;;;;;;;;8348689;28;20056;-88
2023/03/07 10:20:41;;;;;;;24.05;14.55;;;;;;;;;;8330041;28;20045;-89
2023/03/07 10:25:07;;;;;;;33.45;18.73;;;;;;;;;;8343779;28;20823;-87
2023/03/07 10:29:15;;;;;;;22.63;12.50;;;;;;;;;;8331363;28;20120;-88
2023/03/07 10:33:20;;;;;;;25.77;14.15;;;;;;;;;;8336316;28;20075;-88
2023/03/07 10:37:33;;;;;;;25.58;13.57;;;;;;;;;;8353892;28;20684;-88
2023/03/07 10:41:36;;;;;;;25.42;13.38;;;;;;;;;;8338172;28;20057;-87
2023/03/07 10:45:39;;;;;;;23.38;12.57;;;;;;;;;;8338905;28;20443;-89
2023/03/07 10:49:45;;;;;;;25.15;12.52;;;;;;;;;;8329331;28;20048;-87
2023/03/07 10:53:50;;;;;;;26.02;13.73;;;;;;;;;;8334986;28;20053;-87
2023/03/07 10:58:09;;;;;;;19.25;10.45;;;;;;;;;;8339238;28;20049;-87
2023/03/07 11:02:31;;;;;;;12.48;6.07;;;;;;;;;;8360370;28;20136;-88
2023/03/07 11:06:39;;;;;;;20.25;10.05;;;;;;;;;;8343653;28;20400;-88
2023/03/07 11:10:45;;;;;;;27.05;13.20;;;;;;;;;;8341121;28;20086;-87
2023/03/07 11:14:50;;;;;;;15.45;7.75;;;;;;;;;;8348453;28;20055;-85
2023/03/07 11:18:53;;;;;;;16.92;9.55;;;;;;;;;;8345195;28;20743;-87
2023/03/07 11:23:17;;;;;;;20.40;10.30;;;;;;;;;;8339956;28;20049;-87
2023/03/07 11:27:32;;;;;;;20.48;9.60;;;;;;;;;;8344223;28;20084;-87
2023/03/07 11:31:47;;;;;;;14.82;7.47;;;;;;;;;;8344076;28;20532;-87
2023/03/07 11:36:00;;;;;;;18.75;9.10;;;;;;;;;;8341884;28;20044;-88
2023/03/07 11:40:24;;;;;;;15.80;8.15;;;;;;;;;;8367720;28;20401;-87
2023/03/07 11:44:35;;;;;;;21.33;8.57;;;;;;;;;;8346321;28;20049;-88
2023/03/07 11:48:51;;;;;;;18.38;9.30;;;;;;;;;;8340566;28;20408;-87
2023/03/07 11:53:17;;;;;;;16.35;8.35;;;;;;;;;;8362092;28;20037;-87
2023/03/07 11:57:32;;;;;;;15.35;7.35;;;;;;;;;;8348089;28;20101;-88
2023/03/07 12:01:44;;;;;;;17.70;8.35;;;;;;;;;;8348477;28;20069;-87
2023/03/07 12:06:08;;;;;;;14.00;7.17;;;;;;;;;;8349717;28;20049;-87
2023/03/07 12:10:33;;;;;;;18.95;7.97;;;;;;;;;;8329279;28;20296;-87
2023/03/07 12:14:45;;;;;;;29.73;13.00;;;;;;;;;;8328655;28;20049;-87
2023/03/07 12:19:13;;;;;;;10.95;5.97;;;;;;;;;;8338007;28;20424;-87
2023/03/07 12:23:21;;;;;;;20.52;8.93;;;;;;;;;;8346187;28;20045;-89
2023/03/07 12:27:30;;;;;;;17.58;7.57;;;;;;;;;;8346527;28;20080;-88
2023/03/07 12:31:38;;;;;;;14.50;7.53;;;;;;;;;;8342600;28;20045;-88
2023/03/07 12:35:46;;;;;;;13.80;7.60;;;;;;;;;;8335346;28;20045;-89
2023/03/07 12:39:53;;;;;;;21.40;9.18;;;;;;;;;;8352819;28;20056;-88
2023/03/07 12:44:03;;;;;;;17.98;8.60;;;;;;;;;;8355627;28;20144;-89
2023/03/07 12:48:14;;;;;;;19.20;8.63;;;;;;;;;;8341423;28;20509;-89
2023/03/07 12:52:29;;;;;;;14.07;7.50;;;;;;;;;;8346249;28;20057;-89
2023/03/07 12:56:43;;;;;;;20.05;10.90;;;;;;;;;;8347873;28;20041;-88
2023/03/07 13:00:50;;;;;;;15.18;7.45;;;;;;;;;;8346665;28;20085;-88
2023/03/07 13:04:53;;;;;;;14.43;8.68;;;;;;;;;;8346955;28;20478;-88
2023/03/07 13:09:00;;;;;;;18.30;9.52;;;;;;;;;;8327914;28;20055;-87
2023/03/07 13:13:39;;;;;;;14.73;7.85;;;;;;;;;;8328404;28;20562;-88
2023/03/07 13:17:59;;;;;;;18.10;8.82;;;;;;;;;;8332990;28;20151;-88
2023/03/07 13:22:02;;;;;;;18.58;9.18;;;;;;;;;;8342442;28;20128;-88
2023/03/07 13:26:13;;;;;;;22.67;10.05;;;;;;;;;;8348913;28;20073;-87
2023/03/07 13:30:19;;;;;;;21.05;10.55;;;;;;;;;;8341925;28;20044;-87
2023/03/07 13:34:50;;;;;;;16.75;8.90;;;;;;;;;;8356692;28;20076;-87
2023/03/07 13:38:53;;;;;;;22.95;12.63;;;;;;;;;;8372048;28;20057;-88
2023/03/07 13:42:58;;;;;;;18.83;8.40;;;;;;;;;;8346245;28;20044;-88
2023/03/07 13:47:03;;;;;;;22.45;11.70;;;;;;;;;;8342527;28;20124;-88
2023/03/07 13:51:09;;;;;;;20.02;8.95;;;;;;;;;;8343792;28;20049;-87
2023/03/07 13:55:36;;;;;;;13.13;8.13;;;;;;;;;;8343054;28;20491;-87
2023/03/07 13:59:41;;;;;;;13.55;7.82;;;;;;;;;;8349986;28;20040;-86
2023/03/07 14:03:48;;;;;;;12.70;7.47;;;;;;;;;;8338241;28;20061;-87
2023/03/07 14:07:52;;;;;;;16.33;8.98;;;;;;;;;;8341335;28;20068;-87
2023/03/07 14:12:00;;;;;;;13.45;7.43;;;;;;;;;;8339066;28;20587;-88
2023/03/07 14:16:21;;;;;;;17.83;9.10;;;;;;;;;;8330224;28;20057;-87
2023/03/07 14:20:32;;;;;;;12.97;7.70;;;;;;;;;;8334691;28;20052;-87
2023/03/07 14:24:52;;;;;;;11.07;5.80;;;;;;;;;;8338166;28;20107;-87
2023/03/07 14:29:02;;;;;;;19.48;10.00;;;;;;;;;;8342826;28;20050;-88
2023/03/07 14:33:18;;;;;;;10.85;6.72;;;;;;;;;;8345814;28;20055;-88
2023/03/07 14:37:26;;;;;;;14.00;8.15;;;;;;;;;;8346834;28;20504;-87
2023/03/07 14:41:44;;;;;;;14.13;8.82;;;;;;;;;;8347688;28;20065;-86
2023/03/07 14:45:53;;;;;;;20.83;10.50;;;;;;;;;;8355386;28;20879;-87
2023/03/07 14:50:08;;;;;;;23.52;11.38;;;;;;;;;;8366745;28;20045;-86
2023/03/07 14:54:16;;;;;;;41.80;24.15;;;;;;;;;;8361106;28;20079;-85
2023/03/07 14:58:23;;;;;;;17.77;8.68;;;;;;;;;;8356711;28;20547;-88
2023/03/07 15:02:26;;;;;;;25.58;11.00;;;;;;;;;;8343011;28;20591;-88
2023/03/07 15:06:31;;;;;;;24.60;12.05;;;;;;;;;;8353251;28;20146;-88
2023/03/07 15:10:39;;;;;;;20.92;8.52;;;;;;;;;;8352978;28;20045;-89
2023/03/07 15:14:46;;;;;;;15.95;8.45;;;;;;;;;;8344211;28;20048;-88
2023/03/07 15:18:53;;;;;;;27.48;12.35;;;;;;;;;;8351596;28;20542;-88
2023/03/07 15:23:20;;;;;;;38.17;17.83;;;;;;;;;;8347318;28;20805;-87
2023/03/07 15:27:26;;;;;;;22.85;13.32;;;;;;;;;;8352041;28;20485;-88
2023/03/07 15:31:31;;;;;;;19.42;11.70;;;;;;;;;;8353486;28;20053;-88
2023/03/07 15:35:34;;;;;;;15.00;9.65;;;;;;;;;;8347632;28;20056;-88
2023/03/07 15:39:39;;;;;;;19.90;10.80;;;;;;;;;;8339683;28;20064;-87
2023/03/07 15:43:43;;;;;;;17.55;8.68;;;;;;;;;;8337881;28;20045;-88
2023/03/07 15:47:46;;;;;;;20.23;10.50;;;;;;;;;;8340495;28;20148;-88
2023/03/07 15:51:57;;;;;;;14.45;8.00;;;;;;;;;;8348637;28;20045;-88
2023/03/07 15:56:08;;;;;;;21.33;9.80;;;;;;;;;;8345737;28;20037;-88
2023/03/07 16:00:18;;;;;;;14.02;7.70;;;;;;;;;;8353503;28;20048;-88
2023/03/07 16:04:38;;;;;;;21.10;10.07;;;;;;;;;;8348650;28;20154;-88
2023/03/07 16:08:41;;;;;;;34.53;19.83;;;;;;;;;;8329807;28;20077;-88
2023/03/07 16:12:47;;;;;;;33.67;17.73;;;;;;;;;;8330069;28;20099;-88
2023/03/07 16:16:51;;;;;;;35.00;18.02;;;;;;;;;;8333793;28;20102;-87
2023/03/07 16:20:54;;;;;;;21.10;10.77;;;;;;;;;;8355324;28;20476;-86
2023/03/07 16:24:59;;;;;;;60.60;22.73;;;;;;;;;;8341477;28;20053;-88
2023/03/07 16:29:07;;;;;;;21.73;10.93;;;;;;;;;;8355168;28;20048;-88
2023/03/07 16:33:13;;;;;;;30.77;13.93;;;;;;;;;;8352494;28;20094;-88
2023/03/07 16:37:17;;;;;;;19.10;9.68;;;;;;;;;;8354576;28;20048;-87
2023/03/07 16:41:22;;;;;;;36.40;17.23;;;;;;;;;;8349110;28;20057;-87
2023/03/07 16:45:29;;;;;;;25.73;12.23;;;;;;;;;;8352484;28;20045;-88
2023/03/07 16:49:33;;;;;;;15.40;8.98;;;;;;;;;;8328937;28;20477;-86
2023/03/07 16:53:37;;;;;;;19.48;10.70;;;;;;;;;;8354785;28;20049;-87
2023/03/07 16:57:41;;;;;;;41.45;17.42;;;;;;;;;;8358697;28;20400;-87
2023/03/07 17:01:49;;;;;;;17.95;10.57;;;;;;;;;;8356622;28;20217;-88
2023/03/07 17:05:54;;;;;;;19.95;10.15;;;;;;;;;;8345970;28;20701;-87
2023/03/07 17:09:58;;;;;;;20.85;10.88;;;;;;;;;;8358510;28;20377;-86
2023/03/07 17:14:04;;;;;;;18.42;10.80;;;;;;;;;;8349502;28;20075;-87
2023/03/07 17:18:12;;;;;;;21.92;11.68;;;;;;;;;;8337160;28;20056;-87
2023/03/07 17:22:17;;;;;;;21.60;10.45;;;;;;;;;;8335547;28;20045;-87
2023/03/07 17:26:27;;;;;;;21.23;10.88;;;;;;;;;;8340208;28;20140;-87
2023/03/07 17:30:33;;;;;;;34.58;15.57;;;;;;;;;;8350115;28;20056;-88
2023/03/07 17:34:38;;;;;;;48.13;21.05;;;;;;;;;;8338131;28;20519;-88
2023/03/07 17:38:43;;;;;;;44.85;20.75;;;;;;;;;;8341377;28;20168;-87
2023/03/07 17:42:50;;;;;;;27.10;12.82;;;;;;;;;;8337088;28;20072;-88
2023/03/07 17:46:54;;;;;;;22.05;11.98;;;;;;;;;;8356695;28;20051;-89
2023/03/07 17:51:00;;;;;;;40.92;20.40;;;;;;;;;;8358370;28;20048;-88
2023/03/07 17:55:17;;;;;;;40.95;18.88;;;;;;;;;;8354796;28;20123;-87
2023/03/07 17:59:22;;;;;;;28.13;14.07;;;;;;;;;;8344888;28;20087;-88
2023/03/07 18:03:26;;;;;;;29.13;13.32;;;;;;;;;;8337776;28;20068;-87
2023/03/07 18:07:34;;;;;;;26.85;13.02;;;;;;;;;;8356598;28;20041;-88
2023/03/07 18:11:39;;;;;;;74.93;31.60;;;;;;;;;;8341715;28;20116;-88
2023/03/07 18:15:46;;;;;;;42.90;19.15;;;;;;;;;;8333977;28;20060;-87
2023/03/07 18:19:52;;;;;;;48.22;20.90;;;;;;;;;;8334650;28;20053;-87
2023/03/07 18:23:59;;;;;;;50.70;21.73;;;;;;;;;;8342245;28;20056;-87
2023/03/07 18:28:09;;;;;;;62.03;21.52;;;;;;;;;;8348433;28;20052;-86
2023/03/07 18:32:15;;;;;;;32.35;17.92;;;;;;;;;;8338836;28;20086;-87
2023/03/07 18:36:21;;;;;;;55.50;21.83;;;;;;;;;;8340419;28;20052;-87
2023/03/07 18:40:30;;;;;;;38.17;15.68;;;;;;;;;;8361540;28;20488;-86
2023/03/07 18:44:41;;;;;;;53.55;19.48;;;;;;;;;;8348921;28;20401;-86
2023/03/07 18:48:51;;;;;;;27.00;11.90;;;;;;;;;;8363166;28;20049;-87
2023/03/07 18:53:04;;;;;;;42.65;16.77;;;;;;;;;;8354208;28;20049;-88
2023/03/07 18:57:15;;;;;;;32.97;13.73;;;;;;;;;;8359447;28;20552;-87
2023/03/07 19:01:28;;;;;;;39.42;17.60;;;;;;;;;;8362491;28;20166;-86
2023/03/07 19:05:35;;;;;;;62.08;24.08;;;;;;;;;;8360638;28;20404;-88
2023/03/07 19:09:40;;;;;;;49.53;18.73;;;;;;;;;;8360549;28;20049;-87
2023/03/07 19:13:48;;;;;;;33.38;13.77;;;;;;;;;;8360764;28;20484;-87
2023/03/07 19:17:57;;;;;;;34.22;15.90;;;;;;;;;;8362560;28;20052;-86
2023/03/07 19:22:01;;;;;;;28.67;12.55;;;;;;;;;;8363783;28;20120;-88
2023/03/07 19:26:08;;;;;;;30.95;12.95;;;;;;;;;;8368743;28;20563;-87
2023/03/07 19:30:20;;;;;;;34.97;16.58;;;;;;;;;;8367851;28;20539;-87
2023/03/07 19:34:25;;;;;;;27.63;11.60;;;;;;;;;;8366361;28;20068;-86
2023/03/07 19:38:30;;;;;;;17.60;9.15;;;;;;;;;;8367761;28;20083;-87
2023/03/07 19:42:36;;;;;;;25.15;12.23;;;;;;;;;;8368200;28;20148;-87
2023/03/07 19:46:45;;;;;;;29.92;13.23;;;;;;;;;;8368113;28;20052;-87
2023/03/07 19:50:49;;;;;;;14.15;7.40;;;;;;;;;;8368154;28;20198;-87
2023/03/07 19:54:58;;;;;;;24.75;11.40;;;;;;;;;;8354956;28;20041;-86
2023/03/07 19:59:06;;;;;;;31.17;15.23;;;;;;;;;;8366904;28;20075;-86
2023/03/07 20:03:18;;;;;;;28.27;13.00;;;;;;;;;;8366643;28;20045;-86
2023/03/07 20:07:23;;;;;;;26.10;13.32;;;;;;;;;;8367446;28;20073;-87
2023/03/07 20:11:31;;;;;;;23.02;10.50;;;;;;;;;;8367281;28;20182;-86
2023/03/07 20:15:35;;;;;;;29.83;14.23;;;;;;;;;;8367220;28;20124;-87
2023/03/07 20:19:44;;;;;;;27.58;13.15;;;;;;;;;;8367094;28;20048;-87
2023/03/07 20:23:49;;;;;;;34.92;13.50;;;;;;;;;;8367269;28;20051;-88
2023/03/07 20:27:53;;;;;;;30.02;14.05;;;;;;;;;;8331653;28;20081;-87
2023/03/07 20:32:00;;;;;;;30.02;14.18;;;;;;;;;;8367176;28;20041;-84
2023/03/07 20:36:11;;;;;;;29.90;14.25;;;;;;;;;;8355192;28;20072;-86
2023/03/07 20:40:18;;;;;;;26.25;13.23;;;;;;;;;;8365071;28;20067;-87
2023/03/07 20:44:23;;;;;;;30.92;13.95;;;;;;;;;;8366794;28;20211;-86
2023/03/07 20:48:32;;;;;;;29.95;14.02;;;;;;;;;;8366141;28;20056;-86
2023/03/07 20:52:43;;;;;;;27.30;14.07;;;;;;;;;;8366311;28;21389;-87
2023/03/07 20:56:51;;;;;;;;;;;;;;;;;;8366819;28;20492;-87
2023/03/07 21:00:56;;;;;;;26.80;13.07;;;;;;;;;;8365704;28;19951;-87
2023/03/07 21:05:02;;;;;;;24.90;12.00;;;;;;;;;;8365740;28;20064;-87
2023/03/07 21:09:16;;;;;;;39.17;17.13;;;;;;;;;;8364850;28;20110;-86
2023/03/07 21:13:22;;;;;;;49.35;21.33;;;;;;;;;;8364246;28;20045;-87
2023/03/07 21:17:27;;;;;;;46.13;20.60;;;;;;;;;;8365301;28;20045;-87
2023/03/07 21:21:33;;;;;;;33.08;16.23;;;;;;;;;;8378486;28;20049;-86
2023/03/07 21:25:39;;;;;;;42.35;19.02;;;;;;;;;;8350858;28;20056;-87
2023/03/07 21:29:44;;;;;;;49.03;23.98;;;;;;;;;;8364940;28;20480;-85
2023/03/07 21:33:50;;;;;;;55.90;26.08;;;;;;;;;;8364672;28;20045;-86
2023/03/07 21:37:56;;;;;;;44.80;19.08;;;;;;;;;;8351294;28;20064;-86
2023/03/07 21:42:01;;;;;;;45.17;21.48;;;;;;;;;;8363249;28;20515;-86
2023/03/07 21:46:11;;;;;;;34.05;17.13;;;;;;;;;;8364372;28;20055;-87
2023/03/07 21:50:15;;;;;;;49.45;24.92;;;;;;;;;;8364449;28;20049;-86
2023/03/07 21:54:19;;;;;;;47.50;20.83;;;;;;;;;;8364033;28;20049;-86
2023/03/07 21:58:25;;;;;;;34.60;15.25;;;;;;;;;;8374272;28;20048;-85
2023/03/07 22:02:28;;;;;;;79.57;32.40;;;;;;;;;;8367586;28;20048;-86
2023/03/07 22:06:31;;;;;;;57.72;27.50;;;;;;;;;;8363871;28;20187;-86
2023/03/07 22:10:34;;;;;;;38.50;19.33;;;;;;;;;;8363657;28;20384;-87
2023/03/07 22:14:38;;;;;;;26.48;11.60;;;;;;;;;;8363581;28;20147;-87
2023/03/07 22:18:41;;;;;;;38.58;18.45;;;;;;;;;;8349873;28;20148;-85
2023/03/07 22:22:44;;;;;;;35.75;16.58;;;;;;;;;;8363395;28;20052;-86
2023/03/07 22:26:47;;;;;;;39.55;18.58;;;;;;;;;;8359800;28;20469;-86
2023/03/07 22:30:52;;;;;;;34.58;16.05;;;;;;;;;;8353463;28;20106;-88
2023/03/07 22:34:54;;;;;;;40.33;18.00;;;;;;;;;;8363164;28;20103;-85
2023/03/07 22:38:57;;;;;;;38.13;18.20;;;;;;;;;;8362694;28;20077;-87
2023/03/07 22:43:00;;;;;;;38.92;17.17;;;;;;;;;;8363046;28;20102;-85
2023/03/07 22:47:05;;;;;;;37.70;17.17;;;;;;;;;;8362816;28;20511;-86
2023/03/07 22:51:12;;;;;;;29.25;15.80;;;;;;;;;;8359321;28;20397;-85
2023/03/07 22:55:15;;;;;;;40.05;18.60;;;;;;;;;;8353898;28;20103;-87
2023/03/07 22:59:18;;;;;;;37.80;19.05;;;;;;;;;;8361872;28;20129;-87
2023/03/07 23:03:23;;;;;;;39.85;17.65;;;;;;;;;;8362408;28;20140;-87
2023/03/07 23:07:26;;;;;;;39.50;17.17;;;;;;;;;;8362455;28;20045;-86
2023/03/07 23:11:30;;;;;;;56.65;22.77;;;;;;;;;;8362388;28;20526;-86
2023/03/07 23:15:33;;;;;;;42.67;17.80;;;;;;;;;;8362705;28;20057;-85
2023/03/07 23:19:38;;;;;;;39.80;16.27;;;;;;;;;;8362173;28;20127;-85
2023/03/07 23:23:41;;;;;;;42.55;19.25;;;;;;;;;;8362151;28;20098;-86
2023/03/07 23:27:44;;;;;;;41.58;17.42;;;;;;;;;;8349108;28;20049;-85
2023/03/07 23:31:47;;;;;;;36.70;16.65;;;;;;;;;;8361947;28;20037;-86
2023/03/07 23:35:52;;;;;;;41.33;18.27;;;;;;;;;;8361959;28;20055;-86
2023/03/07 23:39:57;;;;;;;38.42;17.35;;;;;;;;;;8361722;28;20045;-86
2023/03/07 23:44:01;;;;;;;40.80;17.35;;;;;;;;;;8362180;28;20045;-86
2023/03/07 23:48:05;;;;;;;34.63;16.15;;;;;;;;;;8366998;28;20043;-86
2023/03/07 23:52:09;;;;;;;34.60;15.18;;;;;;;;;;8369278;28;20408;-86
2023/03/07 23:56:13;;;;;;;31.02;14.65;;;;;;;;;;8361837;28;20142;-87
